Time;durP1;ratioP1;P1;durP2;ratioP2;P2;SDS_P1;SDS_P2;PMS_P1;PMS_P2;Temp;Humidity;BMP_temperature;BMP_pressure;BME280_temperature;BME280_humidity;BME280_pressure;Samples;Min_cycle;Max_cycle;Signal;HPM_P1;HPM_P2
2021/12/29 00:00:27;;;;;;;0.20;0.20;;;;;;;18.45;42.27;99588.34;5116088;27;20051;-34
2021/12/29 00:02:54;;;;;;;0.20;0.20;;;;;;;18.46;42.49;99604.56;5124235;27;20047;-35
2021/12/29 00:05:21;;;;;;;0.20;0.20;;;;;;;18.45;42.17;99599.38;5113227;27;20224;-34
2021/12/29 00:07:47;;;;;;;0.20;0.20;;;;;;;18.46;42.18;99603.75;5119343;27;20092;-36
2021/12/29 00:10:14;;;;;;;0.20;0.20;;;;;;;18.45;42.51;99605.69;5100993;28;20036;-34
2021/12/29 00:12:45;;;;;;;0.20;0.20;;;;;;;18.46;42.34;99612.03;5106779;28;20066;-36
2021/12/29 00:15:13;;;;;;;0.30;0.30;;;;;;;18.46;42.15;99612.84;5121261;27;20283;-35
2021/12/29 00:17:42;;;;;;;0.20;0.20;;;;;;;18.46;42.37;99620.31;5123466;27;20047;-35
2021/12/29 00:20:09;;;;;;;0.20;0.20;;;;;;;18.45;42.42;99637.97;5103944;27;20050;-34
2021/12/29 00:22:34;;;;;;;0.20;0.20;;;;;;;18.46;42.33;99640.41;5118479;27;20035;-34
2021/12/29 00:25:00;;;;;;;0.28;0.28;;;;;;;18.45;42.25;99636.03;5116435;27;20149;-35
2021/12/29 00:27:26;;;;;;;0.30;0.30;;;;;;;18.46;42.11;99642.34;5102306;27;20094;-35
2021/12/29 00:29:52;;;;;;;0.30;0.30;;;;;;;18.46;42.40;99639.59;5121373;27;20043;-34
2021/12/29 00:32:17;;;;;;;0.30;0.30;;;;;;;18.45;42.32;99637.97;5134479;27;20376;-34
2021/12/29 00:34:43;;;;;;;0.20;0.20;;;;;;;18.45;42.38;99646.25;5123399;27;20043;-35
2021/12/29 00:37:09;;;;;;;0.20;0.20;;;;;;;18.47;42.44;99657.75;5116479;27;20039;-35
2021/12/29 00:39:34;;;;;;;0.20;0.20;;;;;;;18.47;42.33;99666.03;5102245;28;20047;-34
2021/12/29 00:42:01;;;;;;;0.30;0.30;;;;;;;18.46;42.22;99670.72;5122829;27;20048;-34
2021/12/29 00:44:27;;;;;;;0.20;0.20;;;;;;;18.46;42.25;99680.94;5120816;27;20058;-36
2021/12/29 00:46:54;;;;;;;0.30;0.30;;;;;;;18.45;42.29;99695.88;5122066;27;20039;-36
2021/12/29 00:49:21;;;;;;;0.30;0.30;;;;;;;18.46;42.26;99703.00;5115547;27;20043;-34
2021/12/29 00:51:48;;;;;;;0.30;0.30;;;;;;;18.46;42.42;99706.56;5127921;27;20058;-34
2021/12/29 00:54:14;;;;;;;0.30;0.30;;;;;;;18.46;42.34;99709.31;5114782;27;20101;-35
2021/12/29 00:56:40;;;;;;;0.20;0.20;;;;;;;18.47;42.46;99721.16;5105946;28;20048;-34
2021/12/29 00:59:06;;;;;;;0.30;0.30;;;;;;;18.46;42.32;99728.63;5130616;27;20039;-34
2021/12/29 01:01:31;;;;;;;0.30;0.30;;;;;;;18.46;42.32;99727.81;5104933;28;20363;-34
2021/12/29 01:04:02;;;;;;;0.30;0.30;;;;;;;18.47;42.36;99743.22;5125071;27;20043;-35
2021/12/29 01:06:28;;;;;;;0.30;0.30;;;;;;;18.46;42.25;99745.16;5099429;28;20433;-34
2021/12/29 01:08:53;;;;;;;0.30;0.30;;;;;;;18.46;42.35;99747.13;5122782;27;20040;-34
2021/12/29 01:11:19;;;;;;;0.22;0.22;;;;;;;18.47;42.30;99749.56;5121176;27;20486;-35
2021/12/29 01:13:48;;;;;;;0.30;0.30;;;;;;;18.47;42.32;99748.75;5122186;27;20050;-34
2021/12/29 01:16:46;;;;;;;;;;;;;;;18.47;42.48;99754.25;5121540;27;20044;-34
2021/12/29 01:19:02;;;;;;;0.20;0.20;;;;;;;18.46;42.48;99764.47;5099917;28;20298;-34
2021/12/29 01:21:28;;;;;;;0.30;0.30;;;;;;;18.46;42.41;99772.75;5107274;28;20043;-35
2021/12/29 01:23:54;;;;;;;0.20;0.20;;;;;;;18.46;42.37;99771.91;5119738;27;20417;-35
2021/12/29 01:26:19;;;;;;;0.20;0.20;;;;;;;18.47;42.39;99771.59;5100709;28;20052;-35
2021/12/29 01:28:46;;;;;;;0.28;0.28;;;;;;;18.46;42.33;99782.94;5115969;27;20043;-35
2021/12/29 01:31:12;;;;;;;0.30;0.30;;;;;;;18.47;42.53;99790.09;5106493;28;20084;-36
2021/12/29 01:33:38;;;;;;;0.30;0.30;;;;;;;18.46;42.38;99785.72;5116934;27;20044;-34
2021/12/29 01:36:03;;;;;;;0.30;0.30;;;;;;;18.45;42.53;99792.34;5115799;27;20427;-34
2021/12/29 01:38:29;;;;;;;0.20;0.20;;;;;;;18.46;42.43;99791.22;5115603;27;20485;-34
2021/12/29 01:40:55;;;;;;;0.30;0.30;;;;;;;18.47;42.52;99806.63;5099536;27;20462;-34
2021/12/29 01:43:21;;;;;;;0.22;0.22;;;;;;;18.46;42.27;99811.34;5097872;28;20100;-35
2021/12/29 01:45:47;;;;;;;0.22;0.22;;;;;;;18.46;42.35;99807.75;5120054;27;20043;-34
2021/12/29 01:48:12;;;;;;;0.20;0.20;;;;;;;18.45;42.32;99817.97;5113743;27;20524;-35
2021/12/29 01:50:40;;;;;;;0.30;0.30;;;;;;;18.45;42.36;99829.00;5125137;27;20088;-37
2021/12/29 01:53:09;;;;;;;0.20;0.20;;;;;;;18.47;42.41;99828.69;5114285;27;20418;-34
2021/12/29 01:55:37;;;;;;;0.30;0.30;;;;;;;18.46;42.44;99836.13;5118337;27;20057;-34
2021/12/29 01:58:03;;;;;;;;;;;;;;;18.46;42.49;99841.66;5120805;27;20047;-34
2021/12/29 02:00:30;;;;;;;0.20;0.20;;;;;;;18.46;42.44;99849.13;5119402;27;19920;-34
2021/12/29 02:02:56;;;;;;;0.20;0.20;;;;;;;18.46;42.50;99860.13;5101005;27;20039;-35
2021/12/29 02:05:22;;;;;;;0.30;0.30;;;;;;;18.46;42.37;99860.13;5098961;28;20317;-34
2021/12/29 02:07:48;;;;;;;0.30;0.30;;;;;;;18.47;42.53;99859.00;5101269;28;20429;-36
2021/12/29 02:10:16;;;;;;;0.25;0.25;;;;;;;18.46;42.43;99876.69;5114104;28;20074;-33
2021/12/29 02:12:42;;;;;;;;;;;;;;;18.45;42.64;99873.09;5081436;28;20418;-35
2021/12/29 02:15:09;;;;;;;0.30;0.30;;;;;;;18.46;42.27;99873.94;5125485;27;19919;-35
2021/12/29 02:17:34;;;;;;;0.30;0.30;;;;;;;18.45;42.44;99872.28;5125841;27;20099;-34
2021/12/29 02:20:02;;;;;;;0.30;0.30;;;;;;;18.46;42.45;99882.19;5121684;27;20238;-34
2021/12/29 02:22:38;;;;;;;0.30;0.30;;;;;;;18.46;42.31;99891.28;5115515;27;20059;-34
2021/12/29 02:25:19;;;;;;;0.20;0.20;;;;;;;18.47;42.43;99890.16;5119878;27;20043;-34
2021/12/29 02:27:47;;;;;;;0.30;0.30;;;;;;;18.45;42.54;99892.41;5099231;28;20043;-34
2021/12/29 02:30:15;;;;;;;0.30;0.30;;;;;;;18.46;42.48;99891.28;5100394;27;20047;-34
2021/12/29 02:32:42;;;;;;;0.28;0.28;;;;;;;18.46;42.36;99893.22;5103618;28;21271;-34
2021/12/29 02:35:09;;;;;;;0.30;0.30;;;;;;;18.46;42.43;99899.56;5117624;27;20537;-34
2021/12/29 02:37:34;;;;;;;0.20;0.20;;;;;;;18.47;42.36;99914.16;5113956;27;20134;-34
2021/12/29 02:40:00;;;;;;;0.20;0.20;;;;;;;18.47;42.51;99914.97;5119423;27;20055;-34
2021/12/29 02:42:29;;;;;;;0.30;0.30;;;;;;;18.46;42.41;99921.59;5117104;28;20039;-35
2021/12/29 02:44:55;;;;;;;0.30;0.30;;;;;;;18.46;42.39;99918.84;5104188;28;20062;-34
2021/12/29 02:47:21;;;;;;;0.30;0.30;;;;;;;18.46;42.51;99918.84;5121681;27;20050;-36
2021/12/29 02:49:47;;;;;;;0.25;0.25;;;;;;;18.46;42.46;99921.59;5115705;27;20071;-34
2021/12/29 02:52:14;;;;;;;0.30;0.30;;;;;;;18.46;42.34;99916.09;5104162;27;20043;-34
2021/12/29 02:54:40;;;;;;;0.28;0.28;;;;;;;18.46;42.47;99915.28;5117314;27;20039;-34
2021/12/29 02:57:06;;;;;;;0.22;0.22;;;;;;;18.46;42.66;99918.84;5096796;28;20048;-34
2021/12/29 02:59:32;;;;;;;0.30;0.30;;;;;;;18.46;42.43;99927.13;5103910;28;20044;-34
2021/12/29 03:01:58;;;;;;;0.30;0.30;;;;;;;18.47;42.61;99927.94;5121483;27;20134;-34
2021/12/29 03:04:24;;;;;;;0.20;0.20;;;;;;;18.46;42.37;99929.88;5123424;27;20043;-34
2021/12/29 03:06:50;;;;;;;0.30;0.30;;;;;;;18.47;42.56;99944.47;5123149;27;20066;-34
2021/12/29 03:09:16;;;;;;;0.30;0.30;;;;;;;18.48;42.36;99943.34;5125079;27;20048;-34
2021/12/29 03:11:43;;;;;;;0.20;0.20;;;;;;;18.48;42.43;99946.09;5108713;28;20039;-36
2021/12/29 03:14:10;;;;;;;0.20;0.20;;;;;;;18.47;42.50;99942.53;5125681;27;20390;-34
2021/12/29 03:16:37;;;;;;;0.30;0.30;;;;;;;18.46;42.49;99948.34;5122680;27;20134;-35
2021/12/29 03:19:04;;;;;;;0.20;0.20;;;;;;;18.46;42.45;99954.69;5107333;28;20068;-36
2021/12/29 03:21:31;;;;;;;0.30;0.30;;;;;;;18.47;42.48;99952.75;5106870;28;20106;-34
2021/12/29 03:23:57;;;;;;;0.20;0.20;;;;;;;18.48;42.33;99954.38;5105715;28;20058;-34
2021/12/29 03:26:23;;;;;;;0.20;0.20;;;;;;;18.47;42.45;99958.25;5096537;28;20051;-34
2021/12/29 03:28:49;;;;;;;0.20;0.20;;;;;;;18.46;42.51;99962.16;5120669;27;20050;-35
2021/12/29 03:31:17;;;;;;;0.20;0.20;;;;;;;18.46;42.55;99962.97;5128513;27;20127;-35
2021/12/29 03:33:43;;;;;;;;;;;;;;;18.48;42.57;99968.16;5105269;27;20089;-34
2021/12/29 03:36:11;;;;;;;0.30;0.30;;;;;;;18.47;42.50;99980.31;5102036;28;19981;-34
2021/12/29 03:38:38;;;;;;;0.25;0.25;;;;;;;18.47;42.53;99977.56;5108384;27;20042;-34
2021/12/29 03:41:06;;;;;;;0.20;0.20;;;;;;;18.46;42.37;99982.25;5102979;28;20055;-34
2021/12/29 03:43:33;;;;;;;0.20;0.20;;;;;;;18.47;42.49;99983.06;5118112;27;20039;-36
2021/12/29 03:45:59;;;;;;;0.20;0.20;;;;;;;18.45;42.59;99988.91;5123392;27;20050;-34
2021/12/29 03:48:27;;;;;;;0.20;0.20;;;;;;;18.46;42.47;99992.47;5121655;27;20094;-34
2021/12/29 03:50:54;;;;;;;0.20;0.20;;;;;;;18.46;42.41;99997.97;5119114;27;20043;-34
2021/12/29 03:53:20;;;;;;;0.20;0.20;;;;;;;18.46;42.64;100009.00;5122556;27;20274;-34
2021/12/29 03:55:49;;;;;;;0.20;0.20;;;;;;;18.46;42.46;100003.50;5116804;28;20471;-34
2021/12/29 03:58:16;;;;;;;0.30;0.30;;;;;;;18.46;42.45;100004.31;5101681;27;20121;-34
2021/12/29 04:00:43;;;;;;;0.30;0.30;;;;;;;18.46;42.60;100015.34;5105422;28;20049;-34
2021/12/29 04:03:09;;;;;;;0.20;0.20;;;;;;;18.46;42.52;100015.34;5121082;27;20386;-36
2021/12/29 04:05:35;;;;;;;0.30;0.30;;;;;;;18.47;42.48;100029.94;5113995;28;20086;-34
2021/12/29 04:08:02;;;;;;;0.30;0.30;;;;;;;18.45;42.51;100024.75;5103838;27;20035;-35
2021/12/29 04:10:27;;;;;;;0.20;0.20;;;;;;;18.45;42.45;100027.50;5125734;27;20603;-34
2021/12/29 04:12:53;;;;;;;0.30;0.30;;;;;;;18.46;42.43;100029.13;5105766;27;20047;-35
2021/12/29 04:15:19;;;;;;;0.20;0.20;;;;;;;18.46;42.68;100040.16;5116747;27;20047;-34
2021/12/29 04:17:45;;;;;;;0.20;0.20;;;;;;;18.46;42.48;100040.16;5105628;27;20043;-34
2021/12/29 04:23:04;;;;;;;0.20;0.20;;;;;;;18.46;42.60;100039.34;5098420;27;20039;-34
2021/12/29 04:25:34;;;;;;;0.20;0.20;;;;;;;18.46;42.47;100044.84;5102637;28;20039;-35
2021/12/29 04:28:01;;;;;;;0.30;0.30;;;;;;;18.46;42.46;100048.44;5113917;28;20050;-35
2021/12/29 04:30:27;;;;;;;0.20;0.20;;;;;;;18.45;42.79;100052.31;5098616;28;20048;-34
2021/12/29 04:32:53;;;;;;;0.30;0.30;;;;;;;18.46;42.55;100058.63;5117492;27;20056;-35
2021/12/29 04:35:20;;;;;;;0.30;0.30;;;;;;;18.46;42.51;100055.88;5101428;28;20070;-34
2021/12/29 04:37:46;;;;;;;0.20;0.20;;;;;;;18.45;42.42;100071.59;5102974;28;20339;-34
2021/12/29 04:40:12;;;;;;;0.22;0.22;;;;;;;18.45;42.40;100077.13;5100809;28;20047;-36
2021/12/29 04:42:37;;;;;;;0.20;0.20;;;;;;;18.46;42.44;100081.50;5100381;28;20039;-34
2021/12/29 04:45:04;;;;;;;0.30;0.30;;;;;;;18.46;42.46;100080.69;5130425;27;20077;-34
2021/12/29 04:47:31;;;;;;;0.20;0.20;;;;;;;18.46;42.52;100076.00;5103958;27;20035;-34
2021/12/29 04:50:01;;;;;;;0.30;0.30;;;;;;;18.47;42.61;100087.84;5098785;27;20047;-36
2021/12/29 04:52:29;;;;;;;0.20;0.20;;;;;;;18.46;42.62;100091.72;5110164;28;20169;-34
2021/12/29 04:54:55;;;;;;;0.20;0.20;;;;;;;18.45;42.68;100090.91;5103284;28;20441;-34
2021/12/29 04:57:21;;;;;;;0.30;0.30;;;;;;;18.46;42.69;100087.03;5128133;27;20043;-34
2021/12/29 04:59:47;;;;;;;0.30;0.30;;;;;;;18.46;42.50;100084.25;5121379;27;20044;-35
2021/12/29 05:02:13;;;;;;;0.20;0.20;;;;;;;18.45;42.44;100090.91;5124742;27;20043;-34
2021/12/29 05:04:55;;;;;;;0.20;0.20;;;;;;;18.45;42.50;100088.16;5123389;27;20611;-34
2021/12/29 05:10:07;;;;;;;0.20;0.20;;;;;;;18.46;42.38;100105.50;5123033;27;20130;-34
2021/12/29 05:12:33;;;;;;;0.30;0.30;;;;;;;18.46;42.64;100113.78;5084248;28;20050;-34
2021/12/29 05:14:58;;;;;;;0.20;0.20;;;;;;;18.46;42.39;100120.09;5124980;27;20039;-34
2021/12/29 05:17:24;;;;;;;0.20;0.20;;;;;;;18.45;42.57;100126.75;5130122;27;20047;-37
2021/12/29 05:19:50;;;;;;;0.20;0.20;;;;;;;18.46;42.54;100122.88;5123831;27;20506;-34
2021/12/29 05:22:16;;;;;;;0.30;0.30;;;;;;;18.46;42.49;100127.56;5107449;28;20035;-34
2021/12/29 05:24:41;;;;;;;0.20;0.20;;;;;;;18.46;42.37;100122.88;5120165;27;20100;-36
2021/12/29 05:27:07;;;;;;;0.20;0.20;;;;;;;18.46;42.57;100138.59;5127368;27;20092;-34
2021/12/29 05:29:33;;;;;;;0.20;0.20;;;;;;;18.46;42.67;100127.56;5105109;28;20047;-34
2021/12/29 05:31:58;;;;;;;0.30;0.30;;;;;;;18.46;42.55;100136.66;5116256;27;20062;-35
2021/12/29 05:34:24;;;;;;;0.20;0.20;;;;;;;18.45;42.18;100150.75;5116600;27;20058;-35
2021/12/29 05:36:50;;;;;;;0.30;0.30;;;;;;;18.46;42.52;100146.84;5120775;28;20039;-35
2021/12/29 05:39:16;;;;;;;0.20;0.20;;;;;;;18.46;42.70;100155.13;5109257;28;20386;-34
2021/12/29 05:41:42;;;;;;;0.20;0.20;;;;;;;18.45;42.55;100157.06;5115515;28;20043;-35
2021/12/29 05:44:07;;;;;;;0.20;0.20;;;;;;;18.45;42.51;100159.00;5120737;27;20087;-34
2021/12/29 05:46:33;;;;;;;0.20;0.20;;;;;;;18.46;42.70;100155.94;5097562;28;20058;-34
2021/12/29 05:48:59;;;;;;;0.20;0.20;;;;;;;18.46;42.57;100147.69;5124031;27;20039;-35
2021/12/29 05:51:25;;;;;;;0.20;0.20;;;;;;;18.46;42.55;100163.41;5115770;27;20051;-36
2021/12/29 05:53:50;;;;;;;0.30;0.30;;;;;;;18.46;42.66;100155.13;5114348;27;20075;-34
2021/12/29 05:56:16;;;;;;;0.20;0.20;;;;;;;18.46;42.72;100150.44;5125056;27;20428;-35
2021/12/29 05:58:42;;;;;;;0.20;0.20;;;;;;;18.46;42.65;100147.69;5097744;28;20066;-34
2021/12/29 06:01:09;;;;;;;0.20;0.20;;;;;;;18.45;42.59;100151.56;5118540;28;20066;-34
2021/12/29 06:03:36;;;;;;;0.20;0.20;;;;;;;18.46;42.58;100163.41;5121040;27;20070;-34
2021/12/29 06:06:02;;;;;;;0.30;0.30;;;;;;;18.46;42.78;100161.47;5116672;27;20039;-34
2021/12/29 06:08:28;;;;;;;0.20;0.20;;;;;;;18.46;42.46;100169.72;5097066;27;20039;-35
2021/12/29 06:10:54;;;;;;;0.20;0.20;;;;;;;18.46;42.90;100163.41;5125108;27;20359;-34
2021/12/29 06:13:20;;;;;;;0.28;0.28;;;;;;;18.46;42.57;100169.72;5113474;27;20058;-34
2021/12/29 06:15:46;;;;;;;0.30;0.30;;;;;;;18.46;42.69;100168.91;5130003;27;20419;-35
2021/12/29 06:18:12;;;;;;;0.30;0.30;;;;;;;18.45;42.75;100165.34;5118853;27;20059;-35
2021/12/29 06:20:38;;;;;;;0.20;0.20;;;;;;;18.46;42.66;100172.50;5105563;27;20134;-35
2021/12/29 06:23:06;;;;;;;0.25;0.25;;;;;;;18.45;42.66;100184.63;5118081;27;20059;-34
2021/12/29 06:25:33;;;;;;;0.20;0.20;;;;;;;18.46;42.72;100183.53;5120906;27;20043;-37
2021/12/29 06:27:58;;;;;;;0.25;0.25;;;;;;;18.47;42.61;100176.06;5124646;27;20439;-34
2021/12/29 06:30:24;;;;;;;0.20;0.20;;;;;;;18.46;42.66;100179.94;5122004;27;20046;-34
2021/12/29 06:32:50;;;;;;;0.20;0.20;;;;;;;18.45;42.61;100181.88;5105228;27;20039;-35
2021/12/29 06:35:15;;;;;;;0.20;0.20;;;;;;;18.46;42.54;100188.22;5103393;28;20050;-33
2021/12/29 06:37:42;;;;;;;0.20;0.20;;;;;;;18.46;42.61;100188.22;5122519;28;20047;-34
2021/12/29 06:40:09;;;;;;;0.20;0.20;;;;;;;18.46;42.73;100199.25;5119326;27;20510;-35
2021/12/29 06:42:36;;;;;;;0.20;0.20;;;;;;;18.45;42.75;100198.44;5121450;27;20339;-34
2021/12/29 06:45:02;;;;;;;0.20;0.20;;;;;;;18.46;42.76;100205.56;5102897;28;20474;-35
2021/12/29 06:47:27;;;;;;;0.20;0.20;;;;;;;18.47;42.60;100209.16;5110370;28;20043;-34
2021/12/29 06:49:53;;;;;;;0.20;0.20;;;;;;;18.46;42.69;100213.03;5117812;27;20058;-35
2021/12/29 06:52:19;;;;;;;0.20;0.20;;;;;;;18.46;42.60;100216.59;5125882;27;20035;-34
2021/12/29 06:54:46;;;;;;;0.30;0.30;;;;;;;18.47;42.56;100222.94;5117640;27;20051;-35
2021/12/29 06:57:12;;;;;;;0.20;0.20;;;;;;;18.46;42.70;100233.16;5106091;28;20508;-35
2021/12/29 06:59:38;;;;;;;0.20;0.20;;;;;;;18.46;42.75;100233.16;5124217;27;20048;-37
2021/12/29 07:02:04;;;;;;;0.20;0.20;;;;;;;18.46;42.87;100230.38;5104439;28;20047;-34
2021/12/29 07:04:30;;;;;;;0.20;0.20;;;;;;;18.46;42.65;100235.91;5088466;28;20062;-35
2021/12/29 07:06:57;;;;;;;0.20;0.20;;;;;;;18.47;42.63;100240.28;5119145;27;20489;-35
2021/12/29 07:09:22;;;;;;;0.30;0.30;;;;;;;18.46;42.81;100240.59;5107938;28;20051;-35
2021/12/29 07:11:50;;;;;;;0.30;0.30;;;;;;;18.46;42.79;100240.59;5101718;28;20063;-34
2021/12/29 07:14:15;;;;;;;0.20;0.20;;;;;;;18.46;42.77;100241.41;5128148;27;20043;-34
2021/12/29 07:16:44;;;;;;;0.30;0.30;;;;;;;18.46;42.86;100252.44;5087245;28;20071;-34
2021/12/29 07:19:10;;;;;;;0.20;0.20;;;;;;;18.47;42.59;100247.75;5104863;28;20178;-35
2021/12/29 07:21:36;;;;;;;0.20;0.20;;;;;;;18.47;42.76;100253.25;5124067;27;20051;-34
2021/12/29 07:24:02;;;;;;;0.20;0.20;;;;;;;18.47;42.79;100248.56;5122371;27;20112;-35
2021/12/29 07:26:31;;;;;;;0.20;0.20;;;;;;;18.47;42.77;100259.59;5122975;27;20043;-34
2021/12/29 07:28:57;;;;;;;0.30;0.30;;;;;;;18.47;42.69;100261.53;5127953;27;20060;-35
2021/12/29 07:31:23;;;;;;;0.28;0.28;;;;;;;18.46;42.85;100260.72;5119628;27;20457;-35
2021/12/29 07:34:08;;;;;;;0.20;0.20;;;;;;;18.46;42.70;100266.22;5099445;27;20474;-35
2021/12/29 07:36:34;;;;;;;0.20;0.20;;;;;;;18.46;42.68;100260.72;5122913;27;20051;-34
2021/12/29 07:39:00;;;;;;;0.20;0.20;;;;;;;18.47;42.70;100261.53;5130793;27;20042;-34
2021/12/29 07:41:26;;;;;;;0.20;0.20;;;;;;;18.47;42.70;100265.13;5121768;28;20439;-34
2021/12/29 07:43:52;;;;;;;0.20;0.20;;;;;;;18.47;42.74;100261.53;5126077;27;20039;-34
2021/12/29 07:46:18;;;;;;;0.30;0.30;;;;;;;18.47;42.88;100269.81;5107950;28;20119;-34
2021/12/29 07:48:44;;;;;;;0.20;0.20;;;;;;;18.46;42.71;100274.50;5093476;27;20115;-34
2021/12/29 07:51:09;;;;;;;0.20;0.20;;;;;;;18.48;42.64;100285.22;5124379;27;20107;-34
2021/12/29 07:53:37;;;;;;;0.20;0.20;;;;;;;18.46;42.75;100287.47;5123787;27;20481;-35
2021/12/29 07:56:05;;;;;;;0.20;0.20;;;;;;;18.45;42.59;100289.41;5120124;27;20048;-34
2021/12/29 07:58:30;;;;;;;0.20;0.20;;;;;;;18.47;42.74;100283.59;5120909;27;20139;-35
2021/12/29 08:00:56;;;;;;;0.28;0.28;;;;;;;18.46;42.66;100284.72;5118491;27;20071;-35
2021/12/29 08:03:22;;;;;;;0.20;0.20;;;;;;;18.44;42.78;100279.50;5121159;27;20095;-35
2021/12/29 08:05:48;;;;;;;0.20;0.20;;;;;;;18.47;42.70;100291.88;5119220;27;20127;-34
2021/12/29 08:08:14;;;;;;;0.30;0.30;;;;;;;18.45;42.76;100297.69;5122418;27;20051;-34
2021/12/29 08:10:40;;;;;;;0.20;0.20;;;;;;;18.47;42.79;100302.91;5119476;27;20091;-35
2021/12/29 08:13:07;;;;;;;0.20;0.20;;;;;;;18.46;42.64;100295.75;5125700;27;20095;-35
2021/12/29 08:15:34;;;;;;;0.20;0.20;;;;;;;18.47;42.74;100298.19;5120531;27;20171;-34
2021/12/29 08:18:02;;;;;;;0.20;0.20;;;;;;;18.47;42.83;100306.47;5102765;28;20103;-34
2021/12/29 08:20:28;;;;;;;0.20;0.20;;;;;;;18.46;42.71;100315.88;5118596;27;20044;-34
2021/12/29 08:22:54;;;;;;;0.20;0.20;;;;;;;18.47;42.83;100316.69;5120326;27;20098;-34
2021/12/29 08:25:20;;;;;;;0.20;0.20;;;;;;;18.47;42.75;100305.66;5123007;27;20055;-35
2021/12/29 08:27:45;;;;;;;0.20;0.20;;;;;;;18.48;42.61;100318.31;5128909;27;20061;-34
2021/12/29 08:30:12;;;;;;;0.20;0.20;;;;;;;18.47;42.63;100311.97;5121998;27;20082;-34
2021/12/29 08:32:37;;;;;;;0.30;0.30;;;;;;;18.47;42.56;100322.19;5114204;27;20039;-38
2021/12/29 08:35:04;;;;;;;0.20;0.20;;;;;;;18.47;42.68;100311.97;5129987;27;20047;-34
2021/12/29 08:37:30;;;;;;;0.30;0.30;;;;;;;18.46;42.74;100310.34;5103623;27;20047;-34
2021/12/29 08:39:55;;;;;;;0.22;0.22;;;;;;;18.46;42.77;100317.81;5116079;27;20047;-35
2021/12/29 08:42:22;;;;;;;0.20;0.20;;;;;;;18.47;42.80;100311.16;5125203;27;20054;-35
2021/12/29 08:44:48;;;;;;;0.20;0.20;;;;;;;18.47;42.83;100319.44;5106119;28;20095;-34
2021/12/29 08:47:14;;;;;;;0.30;0.30;;;;;;;18.46;42.80;100321.38;5127831;27;20068;-35
2021/12/29 08:49:39;;;;;;;0.25;0.25;;;;;;;18.47;42.67;100320.25;5117556;27;20090;-34
2021/12/29 08:52:05;;;;;;;0.30;0.30;;;;;;;18.47;42.84;100322.19;5121644;27;20047;-34
2021/12/29 08:54:32;;;;;;;0.20;0.20;;;;;;;18.46;42.76;100318.63;5127240;27;20142;-34
2021/12/29 08:56:57;;;;;;;0.22;0.22;;;;;;;18.46;42.73;100309.53;5115939;27;20107;-34
2021/12/29 08:59:23;;;;;;;0.20;0.20;;;;;;;18.47;42.74;100311.16;5118061;27;20386;-34
2021/12/29 09:01:49;;;;;;;0.30;0.30;;;;;;;18.47;42.76;100319.44;5120921;28;20048;-35
2021/12/29 09:04:16;;;;;;;0.30;0.30;;;;;;;18.47;42.75;100311.16;5117575;27;20078;-35
2021/12/29 09:06:41;;;;;;;0.20;0.20;;;;;;;18.46;42.91;100318.63;5116892;27;20066;-34
2021/12/29 09:09:07;;;;;;;0.20;0.20;;;;;;;18.47;42.86;100309.22;5126009;27;20040;-34
2021/12/29 09:11:33;;;;;;;0.22;0.22;;;;;;;18.47;42.92;100317.50;5116614;28;20550;-34
2021/12/29 09:13:59;;;;;;;0.20;0.20;;;;;;;18.46;42.85;100326.88;5122255;27;20039;-35
2021/12/29 09:16:27;;;;;;;0.20;0.20;;;;;;;18.47;42.73;100336.81;5106212;27;20043;-34
2021/12/29 09:18:53;;;;;;;0.20;0.20;;;;;;;18.48;42.77;100335.72;5117204;27;20039;-34
2021/12/29 09:21:19;;;;;;;0.20;0.20;;;;;;;18.48;42.66;100343.13;5121617;27;20330;-36
2021/12/29 09:23:45;;;;;;;0.20;0.20;;;;;;;18.48;42.76;100340.38;5127320;27;20051;-34
2021/12/29 09:26:12;;;;;;;0.20;0.20;;;;;;;18.46;42.78;100346.19;5110614;27;20486;-34
2021/12/29 09:28:39;;;;;;;0.20;0.20;;;;;;;18.47;42.71;100342.31;5119794;27;20043;-35
2021/12/29 09:31:05;;;;;;;0.20;0.20;;;;;;;18.47;42.70;100347.00;5125061;27;20054;-34
2021/12/29 09:33:31;;;;;;;0.25;0.25;;;;;;;18.46;42.77;100346.19;5120512;27;20546;-34
2021/12/29 09:36:02;;;;;;;0.20;0.20;;;;;;;18.47;42.74;100341.50;5117965;27;20250;-34
2021/12/29 09:38:31;;;;;;;0.30;0.30;;;;;;;18.47;42.85;100342.31;5116220;27;20039;-34
2021/12/29 09:40:57;;;;;;;0.20;0.20;;;;;;;18.48;42.77;100352.25;5121905;27;20469;-34
2021/12/29 09:43:23;;;;;;;0.20;0.20;;;;;;;18.47;42.80;100353.34;5116222;27;20047;-34
2021/12/29 09:45:49;;;;;;;0.20;0.20;;;;;;;18.48;42.87;100352.25;5128101;27;20481;-35
2021/12/29 09:48:16;;;;;;;0.30;0.30;;;;;;;18.49;42.89;100362.16;5119776;27;20054;-35
2021/12/29 09:50:43;;;;;;;0.20;0.20;;;;;;;18.48;42.71;100357.78;5109535;27;20048;-34
2021/12/29 09:53:09;;;;;;;0.30;0.30;;;;;;;18.48;42.84;100352.25;5114088;27;20099;-35
2021/12/29 09:55:35;;;;;;;0.20;0.20;;;;;;;18.48;42.91;100352.25;5114094;28;20506;-34
2021/12/29 09:58:03;;;;;;;0.20;0.20;;;;;;;18.49;42.84;100355.84;5117812;27;20505;-34
2021/12/29 10:00:41;;;;;;;0.20;0.20;;;;;;;18.47;42.82;100353.34;5113672;27;20543;-34
2021/12/29 10:03:08;;;;;;;;;;;;;;;18.47;42.76;100352.53;5108572;27;20040;-34
2021/12/29 10:05:35;;;;;;;0.30;0.30;;;;;;;18.48;42.96;100351.41;5119198;27;20429;-34
2021/12/29 10:08:06;;;;;;;0.20;0.20;;;;;;;18.48;42.78;100352.25;5094158;27;20051;-34
2021/12/29 10:10:35;;;;;;;0.30;0.30;;;;;;;18.49;43.12;100342.03;5119194;27;20406;-34
2021/12/29 10:13:01;;;;;;;0.20;0.20;;;;;;;18.48;42.94;100334.84;5105460;28;20469;-35
2021/12/29 10:15:30;;;;;;;0.20;0.20;;;;;;;18.49;42.84;100336.53;5106055;28;20043;-34
2021/12/29 10:18:01;;;;;;;0.28;0.28;;;;;;;18.49;43.03;100336.53;5130454;27;20188;-34
2021/12/29 10:20:26;;;;;;;0.30;0.30;;;;;;;18.47;42.76;100339.56;5122645;27;20047;-35
2021/12/29 10:22:57;;;;;;;0.30;0.30;;;;;;;18.48;42.52;100329.34;5124049;27;20102;-37
2021/12/29 10:25:31;;;;;;;0.20;0.20;;;;;;;18.49;42.69;100328.25;5089243;28;20529;-34
2021/12/29 10:27:57;;;;;;;0.20;0.20;;;;;;;18.49;42.93;100334.59;5106679;28;20039;-34
2021/12/29 10:30:26;;;;;;;0.20;0.20;;;;;;;18.48;42.86;100330.19;5120180;27;20047;-35
2021/12/29 10:32:55;;;;;;;0.30;0.30;;;;;;;18.47;43.02;100320.25;5123269;27;20498;-35
2021/12/29 10:35:26;;;;;;;0.20;0.20;;;;;;;18.48;42.93;100321.94;5104581;27;20052;-34
2021/12/29 10:37:57;;;;;;;0.30;0.30;;;;;;;18.48;42.77;100324.69;5123809;27;20479;-34
2021/12/29 10:40:26;;;;;;;0.30;0.30;;;;;;;18.48;42.77;100316.41;5094398;27;20405;-34
2021/12/29 10:42:54;;;;;;;0.20;0.20;;;;;;;18.48;42.81;100313.66;5120594;27;20076;-34
2021/12/29 10:45:28;;;;;;;0.20;0.20;;;;;;;18.50;42.90;100327.13;5125920;27;20035;-33
2021/12/29 10:47:54;;;;;;;0.20;0.20;;;;;;;18.49;42.86;100320.81;5125668;27;20189;-35
2021/12/29 10:50:20;;;;;;;0.30;0.30;;;;;;;18.49;42.86;100307.03;5130338;27;20694;-34
2021/12/29 10:52:53;;;;;;;0.30;0.30;;;;;;;18.48;42.96;100316.41;5130523;27;20484;-34
2021/12/29 10:55:31;;;;;;;;;;;;;;;18.49;42.89;100320.00;5124499;27;20137;-33
2021/12/29 10:58:10;;;;;;;0.20;0.20;;;;;;;18.49;42.78;100318.03;5123723;27;19919;-34
2021/12/29 11:00:47;;;;;;;0.20;0.20;;;;;;;18.48;42.84;100315.56;5101671;28;20294;-34
2021/12/29 11:03:19;;;;;;;0.20;0.20;;;;;;;18.49;43.04;100314.47;5125192;27;20050;-34
2021/12/29 11:05:48;;;;;;;0.20;0.20;;;;;;;18.48;42.83;100305.38;5106301;28;20065;-33
2021/12/29 11:08:15;;;;;;;0.30;0.30;;;;;;;18.48;42.95;100305.38;5105823;27;20051;-34
2021/12/29 11:10:43;;;;;;;0.30;0.30;;;;;;;18.48;43.01;100294.34;5105889;27;20039;-34
2021/12/29 11:13:12;;;;;;;0.30;0.30;;;;;;;18.49;42.94;100290.47;5125058;27;20098;-34
2021/12/29 11:15:41;;;;;;;0.20;0.20;;;;;;;18.50;42.78;100296.81;5099698;28;20052;-35
2021/12/29 11:18:10;;;;;;;0.20;0.20;;;;;;;18.50;42.66;100294.88;5110883;28;20051;-34
2021/12/29 11:20:38;;;;;;;0.30;0.30;;;;;;;18.49;42.83;100292.41;5126736;27;20047;-34
2021/12/29 11:23:09;;;;;;;0.20;0.20;;;;;;;18.49;42.94;100292.41;5086314;27;20445;-34
2021/12/29 11:25:35;;;;;;;0.20;0.20;;;;;;;18.50;42.77;100299.56;5102691;27;20047;-34
2021/12/29 11:28:01;;;;;;;0.20;0.20;;;;;;;18.50;42.94;100297.63;5096760;27;20060;-34
2021/12/29 11:30:27;;;;;;;0.20;0.20;;;;;;;18.50;42.99;100307.84;5123606;27;20035;-34
2021/12/29 11:33:04;;;;;;;0.20;0.20;;;;;;;18.50;42.92;100314.16;5123884;27;20085;-34